Time;durP1;ratioP1;P1;durP2;ratioP2;P2;SDS_P1;SDS_P2;PMS_P1;PMS_P2;Temp;Humidity;BMP_temperature;BMP_pressure;BME280_temperature;BME280_humidity;BME280_pressure;Samples;Min_cycle;Max_cycle;Signal;HPM_P1;HPM_P2
2023/02/16 00:01:36;;;;;;;13.02;10.20;;;;;;;;;;5051669;28;20211;-81
2023/02/16 00:04:15;;;;;;;12.02;10.48;;;;;;;;;;5051468;28;20204;-83
2023/02/16 00:06:43;;;;;;;10.52;9.30;;;;;;;;;;5051794;28;20597;-82
2023/02/16 00:09:10;;;;;;;10.85;8.90;;;;;;;;;;5052595;28;20312;-82
2023/02/16 00:14:25;;;;;;;12.85;10.05;;;;;;;;;;5052066;28;20201;-81
2023/02/16 00:16:54;;;;;;;12.60;9.43;;;;;;;;;;5051888;28;20232;-81
2023/02/16 00:19:25;;;;;;;11.90;8.15;;;;;;;;;;5051116;28;20298;-82
2023/02/16 00:21:56;;;;;;;11.18;9.10;;;;;;;;;;5051480;28;20198;-81
2023/02/16 00:24:25;;;;;;;11.38;8.90;;;;;;;;;;5051684;28;20208;-82
2023/02/16 00:26:53;;;;;;;10.63;8.55;;;;;;;;;;5051953;28;20225;-81
2023/02/16 00:29:25;;;;;;;9.65;8.18;;;;;;;;;;5050887;28;20228;-81
2023/02/16 00:31:53;;;;;;;8.25;7.00;;;;;;;;;;5051613;28;20197;-81
2023/02/16 00:34:30;;;;;;;11.90;9.85;;;;;;;;;;5051718;28;20552;-81
2023/02/16 00:37:00;;;;;;;12.95;8.80;;;;;;;;;;5051842;28;20210;-81
2023/02/16 00:39:28;;;;;;;11.10;9.02;;;;;;;;;;5050868;28;20781;-81
2023/02/16 00:42:00;;;;;;;10.50;8.02;;;;;;;;;;5051095;28;20225;-81
2023/02/16 00:44:33;;;;;;;11.00;9.73;;;;;;;;;;5051576;28;20564;-81
2023/02/16 00:47:04;;;;;;;13.18;11.30;;;;;;;;;;5051367;28;20225;-81
2023/02/16 00:49:33;;;;;;;13.05;9.35;;;;;;;;;;5050825;28;20225;-81
2023/02/16 00:52:00;;;;;;;11.23;9.70;;;;;;;;;;5051482;28;20292;-81
2023/02/16 00:54:28;;;;;;;15.75;11.60;;;;;;;;;;5051608;28;20312;-81
2023/02/16 00:56:55;;;;;;;12.25;9.98;;;;;;;;;;5051012;28;20214;-81
2023/02/16 00:59:23;;;;;;;14.75;11.85;;;;;;;;;;5051393;28;20631;-81
2023/02/16 01:01:51;;;;;;;12.10;9.90;;;;;;;;;;5051600;28;20678;-81
2023/02/16 01:04:22;;;;;;;15.30;11.82;;;;;;;;;;5051352;28;20204;-82
2023/02/16 01:12:22;;;;;;;9.13;7.57;;;;;;;;;;5051464;28;20204;-82
2023/02/16 01:14:53;;;;;;;11.82;9.63;;;;;;;;;;5050706;28;20202;-82
2023/02/16 01:17:21;;;;;;;9.15;7.25;;;;;;;;;;5053527;28;20196;-81
2023/02/16 01:19:49;;;;;;;8.63;6.90;;;;;;;;;;5054332;28;20248;-82
2023/02/16 01:22:18;;;;;;;11.38;9.13;;;;;;;;;;5055165;28;20285;-81
2023/02/16 01:24:45;;;;;;;9.95;8.52;;;;;;;;;;5055097;28;20229;-82
2023/02/16 01:27:14;;;;;;;10.15;8.80;;;;;;;;;;5054955;28;20313;-82
2023/02/16 01:29:41;;;;;;;14.98;10.98;;;;;;;;;;5054725;28;20232;-81
2023/02/16 01:32:12;;;;;;;11.27;8.23;;;;;;;;;;5055093;28;20721;-81
2023/02/16 01:34:39;;;;;;;11.55;9.38;;;;;;;;;;5055179;28;20280;-81
2023/02/16 01:37:10;;;;;;;12.23;9.90;;;;;;;;;;5054904;28;20240;-81
2023/02/16 01:39:39;;;;;;;13.48;9.63;;;;;;;;;;5054473;28;20300;-81
2023/02/16 01:42:29;;;;;;;16.75;11.52;;;;;;;;;;5054388;28;20236;-82
2023/02/16 01:45:00;;;;;;;16.10;11.50;;;;;;;;;;5054984;28;20228;-82
2023/02/16 01:47:36;;;;;;;14.82;11.15;;;;;;;;;;5055165;28;20301;-81
2023/02/16 01:50:15;;;;;;;17.35;11.30;;;;;;;;;;5054090;28;20271;-81
2023/02/16 01:52:48;;;;;;;18.75;12.98;;;;;;;;;;5054380;28;20657;-82
2023/02/16 01:55:20;;;;;;;17.65;12.77;;;;;;;;;;5054427;28;20182;-81
2023/02/16 01:57:51;;;;;;;14.70;11.65;;;;;;;;;;5054368;28;20183;-82
2023/02/16 02:00:27;;;;;;;12.25;9.25;;;;;;;;;;5053877;28;20231;-82
2023/02/16 02:05:33;;;;;;;18.63;11.00;;;;;;;;;;5064993;28;20209;-81
2023/02/16 02:05:43;;;;;;;17.63;10.38;;;;;;;;;;5074587;28;20208;-82
2023/02/16 02:08:19;;;;;;;16.33;11.98;;;;;;;;;;5074752;28;20226;-82
2023/02/16 02:11:00;;;;;;;14.68;10.70;;;;;;;;;;5074945;28;20252;-81
2023/02/16 02:13:32;;;;;;;16.30;12.80;;;;;;;;;;5074601;28;20284;-82
2023/02/16 02:16:00;;;;;;;11.85;10.07;;;;;;;;;;5075145;28;20236;-81
2023/02/16 02:18:27;;;;;;;8.43;6.95;;;;;;;;;;5074330;28;20213;-81
2023/02/16 02:24:14;;;;;;;16.42;12.25;;;;;;;;;;5074690;28;20252;-81
2023/02/16 02:27:20;;;;;;;10.32;8.73;;;;;;;;;;5075829;28;20233;-81
2023/02/16 02:30:18;;;;;;;10.40;8.68;;;;;;;;;;4973926;29;20240;-82
2023/02/16 02:33:27;;;;;;;10.32;7.78;;;;;;;;;;4974751;29;20253;-81
2023/02/16 02:36:11;;;;;;;8.57;6.85;;;;;;;;;;5071082;28;20299;-81
2023/02/16 02:38:46;;;;;;;9.85;7.93;;;;;;;;;;5071927;28;20217;-83
2023/02/16 02:41:21;;;;;;;9.82;8.15;;;;;;;;;;5062412;28;20287;-82
2023/02/16 02:43:55;;;;;;;12.80;8.63;;;;;;;;;;5061194;28;20264;-82
2023/02/16 02:46:27;;;;;;;11.45;8.80;;;;;;;;;;5060389;28;20216;-82
2023/02/16 02:51:29;;;;;;;15.50;11.25;;;;;;;;;;5031573;28;20237;-84
2023/02/16 03:02:22;;;;;;;10.93;9.20;;;;;;;;;;5033961;28;20561;-84
2023/02/16 03:04:50;;;;;;;15.57;12.68;;;;;;;;;;5033455;28;20202;-83
2023/02/16 03:07:18;;;;;;;14.60;9.23;;;;;;;;;;5032361;28;20668;-84
2023/02/16 03:09:45;;;;;;;12.80;9.85;;;;;;;;;;5032946;28;20643;-83
2023/02/16 03:15:02;;;;;;;13.93;10.05;;;;;;;;;;5034758;28;20689;-83
2023/02/16 03:31:30;;;;;;;9.63;7.80;;;;;;;;;;5033436;28;20236;-83
2023/02/16 03:33:58;;;;;;;10.02;7.78;;;;;;;;;;5034438;28;20202;-84
2023/02/16 03:36:27;;;;;;;9.07;6.93;;;;;;;;;;5033727;28;20253;-84
2023/02/16 03:38:56;;;;;;;12.50;8.52;;;;;;;;;;5032412;28;20285;-83
2023/02/16 03:41:24;;;;;;;8.88;7.03;;;;;;;;;;5033200;28;20190;-82
2023/02/16 03:43:52;;;;;;;8.57;7.30;;;;;;;;;;5032936;28;20565;-84
2023/02/16 03:46:19;;;;;;;10.43;8.38;;;;;;;;;;5031628;28;20317;-83
2023/02/16 03:48:48;;;;;;;11.25;8.95;;;;;;;;;;5031909;28;20272;-83
2023/02/16 03:51:16;;;;;;;10.90;7.13;;;;;;;;;;5032357;28;20666;-83
2023/02/16 03:53:43;;;;;;;9.43;7.18;;;;;;;;;;5032804;28;20210;-84
2023/02/16 03:56:11;;;;;;;8.77;7.90;;;;;;;;;;5032099;28;20309;-87
2023/02/16 03:58:38;;;;;;;13.98;10.65;;;;;;;;;;5031277;28;20201;-85
2023/02/16 04:01:06;;;;;;;13.93;9.68;;;;;;;;;;5032340;28;20237;-85
2023/02/16 04:03:33;;;;;;;15.43;11.98;;;;;;;;;;5032151;28;20222;-85
2023/02/16 04:06:02;;;;;;;16.23;12.30;;;;;;;;;;5031866;28;20229;-85
2023/02/16 04:08:29;;;;;;;14.90;10.45;;;;;;;;;;5032238;28;20317;-84
2023/02/16 04:10:57;;;;;;;11.23;9.48;;;;;;;;;;5032887;28;20659;-85
2023/02/16 04:13:24;;;;;;;9.20;8.15;;;;;;;;;;5031529;28;20198;-85
2023/02/16 04:15:51;;;;;;;12.73;9.10;;;;;;;;;;5032323;28;20265;-84
2023/02/16 04:18:19;;;;;;;10.43;8.10;;;;;;;;;;5032695;28;20203;-85
2023/02/16 04:20:46;;;;;;;9.73;7.57;;;;;;;;;;5033610;28;20237;-85
2023/02/16 04:23:15;;;;;;;9.65;8.68;;;;;;;;;;5033320;28;20289;-86
2023/02/16 04:25:43;;;;;;;8.80;7.57;;;;;;;;;;5033417;28;20236;-84
2023/02/16 04:28:10;;;;;;;10.82;8.30;;;;;;;;;;5033184;28;20237;-84
2023/02/16 04:30:38;;;;;;;11.63;9.73;;;;;;;;;;5033815;28;20213;-85
2023/02/16 04:33:05;;;;;;;10.13;9.10;;;;;;;;;;5032238;28;20289;-85
2023/02/16 04:35:33;;;;;;;10.82;7.80;;;;;;;;;;5033821;28;20234;-85
2023/02/16 04:38:00;;;;;;;7.78;6.95;;;;;;;;;;5032512;28;20206;-84
2023/02/16 04:40:29;;;;;;;6.38;5.78;;;;;;;;;;5033595;28;20230;-85
2023/02/16 04:42:56;;;;;;;5.78;5.18;;;;;;;;;;5031723;28;20201;-85
2023/02/16 04:45:24;;;;;;;6.88;6.15;;;;;;;;;;5030382;28;20314;-85
2023/02/16 04:47:51;;;;;;;11.15;7.35;;;;;;;;;;5031536;28;20199;-85
2023/02/16 04:50:19;;;;;;;8.02;7.22;;;;;;;;;;5031574;28;20483;-85
2023/02/16 04:52:46;;;;;;;9.93;7.40;;;;;;;;;;5035527;28;20226;-85
2023/02/16 04:55:14;;;;;;;10.63;9.52;;;;;;;;;;5035290;28;20281;-84
2023/02/16 04:57:43;;;;;;;9.35;8.35;;;;;;;;;;5034970;28;20293;-85
2023/02/16 05:00:12;;;;;;;9.82;7.43;;;;;;;;;;5034450;28;20265;-85
2023/02/16 05:02:40;;;;;;;11.85;9.48;;;;;;;;;;5035025;28;20210;-85
2023/02/16 05:05:08;;;;;;;8.88;7.55;;;;;;;;;;5035155;28;20281;-85
2023/02/16 05:07:36;;;;;;;10.25;8.55;;;;;;;;;;5035420;28;20203;-86
2023/02/16 05:10:03;;;;;;;9.45;7.38;;;;;;;;;;5035247;28;20226;-85
2023/02/16 05:15:17;;;;;;;8.02;7.00;;;;;;;;;;5035150;28;20714;-85
2023/02/16 05:17:45;;;;;;;15.70;11.55;;;;;;;;;;5034391;28;20203;-85
2023/02/16 05:20:13;;;;;;;12.02;8.95;;;;;;;;;;5033925;28;20209;-85
2023/02/16 05:22:42;;;;;;;11.27;9.32;;;;;;;;;;5034837;28;20198;-85
2023/02/16 05:25:09;;;;;;;9.43;8.18;;;;;;;;;;5034304;28;20314;-85
2023/02/16 05:27:39;;;;;;;8.90;6.85;;;;;;;;;;5034181;28;20199;-85
2023/02/16 05:30:07;;;;;;;9.35;8.02;;;;;;;;;;5034269;28;20233;-85
2023/02/16 05:32:36;;;;;;;9.27;8.25;;;;;;;;;;5033927;28;20721;-85
2023/02/16 05:35:04;;;;;;;9.52;7.72;;;;;;;;;;5034628;28;20360;-85
2023/02/16 05:37:31;;;;;;;15.10;11.55;;;;;;;;;;5034127;28;20213;-85
2023/02/16 05:39:59;;;;;;;9.48;8.55;;;;;;;;;;5033951;28;20195;-84
2023/02/16 05:42:26;;;;;;;11.60;8.93;;;;;;;;;;5035104;28;20329;-85
2023/02/16 05:44:54;;;;;;;10.30;8.98;;;;;;;;;;5033330;28;20228;-85
2023/02/16 05:47:21;;;;;;;9.93;8.75;;;;;;;;;;5033633;28;20285;-85
2023/02/16 05:49:50;;;;;;;10.60;8.40;;;;;;;;;;5033258;28;20226;-85
2023/02/16 05:52:17;;;;;;;9.63;7.97;;;;;;;;;;5037636;28;20293;-85
2023/02/16 05:54:45;;;;;;;8.88;7.97;;;;;;;;;;5034027;28;20309;-85
2023/02/16 05:57:12;;;;;;;7.75;6.78;;;;;;;;;;5033405;28;20309;-85
2023/02/16 05:59:40;;;;;;;11.05;9.85;;;;;;;;;;5033159;28;20305;-86
2023/02/16 06:02:08;;;;;;;8.70;6.32;;;;;;;;;;5032252;28;20195;-87
2023/02/16 06:04:36;;;;;;;11.23;9.25;;;;;;;;;;5034062;28;20206;-84
2023/02/16 06:07:05;;;;;;;14.43;10.30;;;;;;;;;;5033681;28;20250;-85
2023/02/16 06:09:32;;;;;;;9.55;7.72;;;;;;;;;;5033284;28;20222;-85
2023/02/16 06:12:00;;;;;;;9.13;8.02;;;;;;;;;;5033382;28;20216;-85
2023/02/16 06:14:27;;;;;;;9.38;7.65;;;;;;;;;;5033452;28;20208;-85
2023/02/16 06:16:56;;;;;;;11.63;9.43;;;;;;;;;;5033590;28;20222;-86
2023/02/16 06:19:24;;;;;;;13.98;11.40;;;;;;;;;;5033237;28;20226;-86
2023/02/16 06:21:53;;;;;;;14.45;10.38;;;;;;;;;;5029112;28;20237;-85
2023/02/16 06:24:22;;;;;;;11.38;9.25;;;;;;;;;;5034036;28;20276;-85
2023/02/16 06:26:49;;;;;;;10.00;7.93;;;;;;;;;;5033439;28;20309;-84
2023/02/16 06:29:17;;;;;;;10.80;8.68;;;;;;;;;;5032582;28;20309;-85
2023/02/16 06:31:44;;;;;;;14.07;11.02;;;;;;;;;;5032483;28;20285;-84
2023/02/16 06:34:12;;;;;;;13.00;9.05;;;;;;;;;;5033592;28;20209;-84
2023/02/16 06:36:39;;;;;;;9.73;7.80;;;;;;;;;;5032679;28;20242;-84
2023/02/16 06:39:07;;;;;;;12.45;8.45;;;;;;;;;;5032249;28;20214;-85
2023/02/16 06:41:38;;;;;;;9.88;7.93;;;;;;;;;;5032979;28;20241;-84
2023/02/16 06:44:08;;;;;;;12.05;8.85;;;;;;;;;;5032616;28;20575;-85
2023/02/16 06:46:36;;;;;;;9.70;8.18;;;;;;;;;;5033158;28;20222;-85
2023/02/16 06:49:04;;;;;;;9.00;7.35;;;;;;;;;;5032732;28;20659;-85
2023/02/16 06:51:31;;;;;;;11.70;9.68;;;;;;;;;;5032407;28;20311;-85
2023/02/16 06:53:59;;;;;;;11.45;9.73;;;;;;;;;;5032574;28;20202;-85
2023/02/16 06:56:26;;;;;;;12.88;10.38;;;;;;;;;;5032174;28;20746;-85
2023/02/16 06:58:55;;;;;;;12.57;10.18;;;;;;;;;;5031176;28;20634;-85
2023/02/16 07:01:24;;;;;;;11.90;9.90;;;;;;;;;;5032563;28;20206;-85
2023/02/16 07:03:52;;;;;;;14.85;11.13;;;;;;;;;;5032838;28;20586;-85
2023/02/16 07:06:20;;;;;;;16.50;11.18;;;;;;;;;;5033026;28;20591;-85
2023/02/16 07:08:48;;;;;;;13.07;10.93;;;;;;;;;;5032045;28;20434;-85
2023/02/16 07:11:17;;;;;;;12.82;10.52;;;;;;;;;;5032337;28;20223;-85
2023/02/16 07:13:44;;;;;;;12.48;10.50;;;;;;;;;;5031603;28;20837;-85
2023/02/16 07:16:14;;;;;;;13.07;10.38;;;;;;;;;;5032401;28;20698;-85
2023/02/16 07:18:42;;;;;;;15.25;12.15;;;;;;;;;;5032210;28;20664;-86
2023/02/16 07:21:09;;;;;;;12.98;10.00;;;;;;;;;;5032519;28;20264;-85
2023/02/16 07:23:37;;;;;;;16.13;12.05;;;;;;;;;;5032617;28;20294;-85
2023/02/16 07:26:05;;;;;;;13.18;10.70;;;;;;;;;;5032366;28;20334;-85
2023/02/16 07:28:32;;;;;;;16.08;12.48;;;;;;;;;;5031545;28;20206;-85
2023/02/16 07:31:05;;;;;;;13.27;11.10;;;;;;;;;;5031911;28;20226;-85
2023/02/16 07:33:34;;;;;;;14.32;11.68;;;;;;;;;;5032027;28;20241;-85
2023/02/16 07:36:01;;;;;;;15.95;11.77;;;;;;;;;;5031179;28;20223;-85
2023/02/16 07:38:29;;;;;;;16.38;11.15;;;;;;;;;;5031274;28;20301;-85
2023/02/16 07:40:57;;;;;;;16.42;10.68;;;;;;;;;;5031090;28;20280;-85
2023/02/16 07:43:25;;;;;;;13.80;10.38;;;;;;;;;;5031589;28;20202;-86
2023/02/16 07:45:53;;;;;;;14.00;11.20;;;;;;;;;;5031413;28;20226;-85
2023/02/16 07:48:20;;;;;;;16.33;11.77;;;;;;;;;;5031511;28;20214;-85
2023/02/16 07:50:49;;;;;;;15.00;12.35;;;;;;;;;;5032010;28;20230;-85
2023/02/16 07:53:17;;;;;;;15.60;11.38;;;;;;;;;;5031717;28;20301;-85
2023/02/16 07:55:46;;;;;;;14.00;10.15;;;;;;;;;;5031776;28;20260;-85
2023/02/16 07:58:25;;;;;;;13.93;11.05;;;;;;;;;;5031743;28;20654;-86
2023/02/16 08:00:54;;;;;;;12.27;9.48;;;;;;;;;;5030652;28;20194;-85
2023/02/16 08:03:22;;;;;;;10.45;9.35;;;;;;;;;;5031899;28;20204;-85
2023/02/16 08:05:50;;;;;;;9.52;7.45;;;;;;;;;;5032382;28;20222;-85
2023/02/16 08:08:18;;;;;;;10.98;9.38;;;;;;;;;;5032123;28;20210;-85
2023/02/16 08:10:45;;;;;;;13.70;10.38;;;;;;;;;;5031817;28;20313;-85
2023/02/16 08:13:13;;;;;;;13.05;9.82;;;;;;;;;;5031884;28;20296;-85
2023/02/16 08:15:44;;;;;;;14.85;11.23;;;;;;;;;;5032648;28;20290;-84
2023/02/16 08:18:11;;;;;;;13.02;10.35;;;;;;;;;;5032735;28;20206;-85
2023/02/16 08:20:39;;;;;;;10.90;8.68;;;;;;;;;;5032442;28;20208;-85
2023/02/16 08:23:09;;;;;;;11.70;9.75;;;;;;;;;;5032099;28;20198;-85
2023/02/16 08:25:36;;;;;;;12.15;9.25;;;;;;;;;;5031923;28;20321;-85
2023/02/16 08:28:05;;;;;;;15.77;12.73;;;;;;;;;;5032499;28;20214;-84
2023/02/16 08:30:34;;;;;;;14.18;9.88;;;;;;;;;;5031820;28;20242;-84
2023/02/16 08:33:02;;;;;;;11.27;10.13;;;;;;;;;;5031567;28;20630;-85
2023/02/16 08:35:31;;;;;;;11.50;8.80;;;;;;;;;;5031579;28;20663;-85
2023/02/16 08:37:59;;;;;;;12.30;9.60;;;;;;;;;;5031442;28;20233;-85
2023/02/16 08:40:28;;;;;;;14.57;10.50;;;;;;;;;;5031496;28;20659;-84
2023/02/16 08:42:56;;;;;;;11.43;9.20;;;;;;;;;;5031765;28;20667;-85
2023/02/16 08:45:24;;;;;;;11.90;9.75;;;;;;;;;;5031924;28;20320;-84
2023/02/16 08:47:52;;;;;;;12.27;10.23;;;;;;;;;;5031749;28;20202;-84
2023/02/16 08:50:19;;;;;;;11.68;9.50;;;;;;;;;;5029513;28;20224;-84
2023/02/16 08:52:47;;;;;;;10.88;8.98;;;;;;;;;;5030832;28;20218;-84
2023/02/16 08:55:16;;;;;;;14.25;11.32;;;;;;;;;;5031530;28;20715;-84
2023/02/16 08:57:45;;;;;;;10.27;8.68;;;;;;;;;;5031069;28;20529;-84
2023/02/16 09:02:59;;;;;;;13.20;9.50;;;;;;;;;;5031352;28;20283;-85
2023/02/16 09:05:27;;;;;;;13.25;9.32;;;;;;;;;;5031070;28;20219;-85
2023/02/16 09:07:56;;;;;;;9.05;7.63;;;;;;;;;;5030741;28;20210;-85
2023/02/16 09:10:24;;;;;;;12.15;10.05;;;;;;;;;;5030429;28;20202;-86
2023/02/16 09:12:53;;;;;;;8.93;7.55;;;;;;;;;;5031054;28;20667;-85
2023/02/16 09:15:21;;;;;;;13.13;11.00;;;;;;;;;;5030971;28;20257;-84
2023/02/16 09:17:48;;;;;;;13.40;11.02;;;;;;;;;;5032510;28;20198;-85
2023/02/16 09:20:19;;;;;;;14.50;10.40;;;;;;;;;;5031714;28;20210;-86
2023/02/16 09:22:47;;;;;;;15.23;10.98;;;;;;;;;;5031821;28;20252;-86
2023/02/16 09:25:16;;;;;;;13.85;11.73;;;;;;;;;;5031513;28;20226;-85
2023/02/16 09:27:44;;;;;;;17.00;11.90;;;;;;;;;;5031715;28;20198;-85
2023/02/16 09:30:14;;;;;;;10.65;9.52;;;;;;;;;;5031059;28;20199;-86
2023/02/16 09:32:42;;;;;;;11.07;9.75;;;;;;;;;;5030564;28;20312;-85
2023/02/16 09:35:09;;;;;;;13.23;10.35;;;;;;;;;;5031934;28;20206;-86
2023/02/16 09:37:37;;;;;;;15.27;12.02;;;;;;;;;;5033858;28;20201;-85
2023/02/16 09:40:06;;;;;;;14.70;12.27;;;;;;;;;;5034885;28;20204;-85
2023/02/16 09:42:45;;;;;;;15.85;11.82;;;;;;;;;;5035247;28;20293;-85
2023/02/16 09:45:17;;;;;;;12.35;10.88;;;;;;;;;;5035018;28;20293;-86
2023/02/16 09:47:47;;;;;;;12.60;9.77;;;;;;;;;;5034189;28;20220;-85
2023/02/16 09:50:18;;;;;;;14.95;11.43;;;;;;;;;;5033780;28;20301;-86
2023/02/16 09:52:53;;;;;;;14.23;12.15;;;;;;;;;;5033888;28;20234;-86
2023/02/16 09:55:21;;;;;;;17.27;13.32;;;;;;;;;;5034189;28;20229;-85
2023/02/16 09:58:02;;;;;;;16.20;12.57;;;;;;;;;;5034442;28;20622;-85
2023/02/16 10:00:44;;;;;;;14.73;11.18;;;;;;;;;;5033123;28;20202;-86
2023/02/16 10:03:36;;;;;;;18.20;11.88;;;;;;;;;;5033812;28;20201;-86
2023/02/16 10:06:24;;;;;;;15.52;12.05;;;;;;;;;;5033592;28;20211;-86
2023/02/16 10:08:55;;;;;;;17.60;12.55;;;;;;;;;;5058217;22;20245;-79
2023/02/16 10:11:40;;;;;;;15.65;12.20;;;;;;;;;;5039286;28;20218;-79
2023/02/16 10:14:17;;;;;;;16.08;12.05;;;;;;;;;;5043181;28;20213;-79
2023/02/16 10:16:55;;;;;;;20.50;14.65;;;;;;;;;;5055306;28;20208;-78
2023/02/16 10:19:28;;;;;;;17.40;12.38;;;;;;;;;;5056739;28;20246;-79
2023/02/16 10:21:58;;;;;;;15.93;13.00;;;;;;;;;;5040457;28;20611;-80
2023/02/16 10:24:28;;;;;;;16.90;14.23;;;;;;;;;;5035176;28;20210;-80
2023/02/16 10:27:02;;;;;;;20.00;15.77;;;;;;;;;;5036345;28;20214;-80
2023/02/16 10:29:30;;;;;;;19.80;14.68;;;;;;;;;;5035854;28;20208;-79
2023/02/16 10:32:12;;;;;;;19.50;15.10;;;;;;;;;;5036051;28;20234;-79
2023/02/16 10:34:49;;;;;;;19.63;14.20;;;;;;;;;;5037243;28;20216;-79
2023/02/16 10:37:36;;;;;;;21.33;14.70;;;;;;;;;;5036566;28;20674;-79
2023/02/16 10:40:22;;;;;;;20.67;15.32;;;;;;;;;;5035409;28;20244;-80
2023/02/16 10:42:55;;;;;;;18.58;14.73;;;;;;;;;;5036240;28;20623;-79
2023/02/16 10:45:30;;;;;;;17.42;14.15;;;;;;;;;;5035381;28;20675;-80
2023/02/16 10:48:00;;;;;;;17.88;14.27;;;;;;;;;;5036595;28;20264;-77
2023/02/16 10:50:31;;;;;;;20.10;16.52;;;;;;;;;;5034380;28;20280;-79
2023/02/16 10:53:02;;;;;;;22.23;15.15;;;;;;;;;;5034378;28;20210;-80
2023/02/16 10:55:29;;;;;;;22.42;15.52;;;;;;;;;;5033751;28;20213;-80
2023/02/16 10:57:59;;;;;;;21.17;15.57;;;;;;;;;;5033599;28;20198;-80
2023/02/16 11:00:50;;;;;;;21.02;15.40;;;;;;;;;;5034751;28;20245;-80
2023/02/16 11:03:22;;;;;;;23.98;15.45;;;;;;;;;;5034040;28;20194;-80
2023/02/16 11:05:50;;;;;;;20.23;14.18;;;;;;;;;;5034039;28;20206;-80
2023/02/16 11:08:17;;;;;;;19.98;15.52;;;;;;;;;;5033054;28;20628;-80
2023/02/16 11:10:49;;;;;;;21.70;16.10;;;;;;;;;;5033768;28;20228;-81
2023/02/16 11:13:28;;;;;;;22.40;15.43;;;;;;;;;;5034477;28;20234;-81
2023/02/16 11:15:58;;;;;;;22.25;15.80;;;;;;;;;;5033583;28;20623;-80
2023/02/16 11:18:37;;;;;;;19.63;14.85;;;;;;;;;;5034544;28;20210;-79
2023/02/16 11:21:06;;;;;;;19.73;14.43;;;;;;;;;;5032835;28;20283;-80
2023/02/16 11:23:35;;;;;;;21.13;16.15;;;;;;;;;;5033224;28;20195;-79
2023/02/16 11:26:22;;;;;;;21.50;15.98;;;;;;;;;;5033107;28;20202;-80
2023/02/16 11:28:51;;;;;;;23.52;16.15;;;;;;;;;;5032650;28;20612;-80
2023/02/16 11:31:23;;;;;;;21.33;15.52;;;;;;;;;;5033729;28;20313;-80
2023/02/16 11:34:00;;;;;;;24.25;17.70;;;;;;;;;;5034182;28;20230;-81
2023/02/16 11:36:32;;;;;;;24.35;18.13;;;;;;;;;;5033889;28;20198;-80
2023/02/16 11:39:05;;;;;;;21.42;15.40;;;;;;;;;;5032299;28;20209;-81
2023/02/16 11:41:33;;;;;;;19.65;15.90;;;;;;;;;;5033201;28;20758;-80
2023/02/16 11:44:02;;;;;;;23.42;16.98;;;;;;;;;;5032905;28;20596;-79
2023/02/16 11:46:40;;;;;;;21.95;16.35;;;;;;;;;;5032009;28;20595;-79
2023/02/16 11:49:32;;;;;;;30.20;18.58;;;;;;;;;;5032615;28;20203;-81
2023/02/16 11:52:01;;;;;;;21.77;15.98;;;;;;;;;;5032562;28;20206;-79
2023/02/16 11:54:28;;;;;;;25.00;17.70;;;;;;;;;;5032467;28;20236;-81
2023/02/16 11:57:05;;;;;;;23.17;16.20;;;;;;;;;;5032208;28;20269;-81
2023/02/16 11:59:37;;;;;;;23.25;18.08;;;;;;;;;;5049730;28;20190;-79
2023/02/16 12:02:39;;;;;;;24.60;16.25;;;;;;;;;;5054918;28;20225;-80
2023/02/16 12:05:30;;;;;;;22.23;15.88;;;;;;;;;;5054745;28;20205;-80
2023/02/16 12:08:17;;;;;;;17.08;14.88;;;;;;;;;;5055382;28;20257;-81
2023/02/16 12:11:00;;;;;;;22.98;16.65;;;;;;;;;;5055165;28;20244;-80
2023/02/16 12:13:35;;;;;;;20.92;14.20;;;;;;;;;;5040731;28;20222;-81
2023/02/16 12:16:13;;;;;;;19.77;14.98;;;;;;;;;;5036489;28;20292;-81
2023/02/16 12:18:46;;;;;;;17.17;14.25;;;;;;;;;;5035852;28;20191;-81
2023/02/16 12:21:23;;;;;;;20.45;15.68;;;;;;;;;;5034222;28;20233;-82
2023/02/16 12:23:59;;;;;;;15.55;13.00;;;;;;;;;;5033099;28;20206;-82
2023/02/16 12:26:47;;;;;;;17.35;13.48;;;;;;;;;;5033756;28;20229;-82
2023/02/16 12:29:34;;;;;;;19.00;14.98;;;;;;;;;;5034673;28;20212;-82
2023/02/16 12:32:20;;;;;;;19.60;15.32;;;;;;;;;;5034866;28;20648;-80
2023/02/16 12:35:03;;;;;;;16.77;13.77;;;;;;;;;;5034032;28;20733;-80
2023/02/16 12:37:39;;;;;;;21.60;16.48;;;;;;;;;;5035504;28;20208;-82
2023/02/16 12:40:17;;;;;;;16.27;12.88;;;;;;;;;;5033509;28;20225;-81
2023/02/16 12:43:02;;;;;;;19.52;13.75;;;;;;;;;;5034659;28;20202;-81
2023/02/16 12:45:34;;;;;;;25.48;14.43;;;;;;;;;;5034540;28;20221;-82
2023/02/16 12:48:11;;;;;;;19.90;15.75;;;;;;;;;;5034917;28;20232;-82
2023/02/16 12:50:43;;;;;;;18.75;14.73;;;;;;;;;;5034059;28;20731;-82
2023/02/16 12:53:20;;;;;;;14.02;11.80;;;;;;;;;;5034277;28;20206;-82
2023/02/16 12:55:50;;;;;;;17.67;14.60;;;;;;;;;;5034632;28;20684;-81
2023/02/16 12:58:22;;;;;;;16.80;13.30;;;;;;;;;;5033764;28;20203;-83
2023/02/16 13:00:51;;;;;;;16.00;12.98;;;;;;;;;;5032689;28;20230;-80
2023/02/16 13:03:27;;;;;;;18.38;13.93;;;;;;;;;;5031707;28;20208;-80
2023/02/16 13:06:08;;;;;;;18.02;14.50;;;;;;;;;;5032040;28;20202;-81
2023/02/16 13:08:42;;;;;;;15.52;12.73;;;;;;;;;;5031080;28;20218;-81
2023/02/16 13:11:17;;;;;;;18.70;14.45;;;;;;;;;;5034180;28;20316;-80
2023/02/16 13:13:48;;;;;;;17.98;14.32;;;;;;;;;;5053833;28;20336;-80
2023/02/16 13:16:20;;;;;;;17.98;16.00;;;;;;;;;;5047108;28;20666;-82
2023/02/16 13:18:49;;;;;;;16.70;12.90;;;;;;;;;;5039636;28;20202;-81
2023/02/16 13:21:38;;;;;;;18.40;13.63;;;;;;;;;;5039484;28;20230;-81
2023/02/16 13:24:13;;;;;;;19.15;14.80;;;;;;;;;;5040609;28;20209;-81
2023/02/16 13:26:58;;;;;;;19.88;15.00;;;;;;;;;;5038978;28;20570;-81
2023/02/16 13:29:41;;;;;;;19.92;15.43;;;;;;;;;;5035682;28;20217;-82
2023/02/16 13:32:27;;;;;;;17.23;14.05;;;;;;;;;;5036550;28;20206;-82
2023/02/16 13:35:22;;;;;;;18.40;14.23;;;;;;;;;;5036514;28;20229;-80
2023/02/16 13:38:01;;;;;;;18.38;14.98;;;;;;;;;;5035701;28;20297;-82
2023/02/16 13:41:13;;;;;;;17.88;15.95;;;;;;;;;;5035760;28;20229;-82
2023/02/16 13:43:42;;;;;;;17.35;14.50;;;;;;;;;;5036039;28;20212;-82
2023/02/16 13:46:16;;;;;;;15.98;13.02;;;;;;;;;;5035474;28;20209;-82
2023/02/16 13:48:47;;;;;;;16.48;12.63;;;;;;;;;;5035050;28;20256;-81
2023/02/16 13:51:19;;;;;;;16.58;14.10;;;;;;;;;;5035653;28;20226;-82
2023/02/16 13:53:55;;;;;;;15.30;13.68;;;;;;;;;;5035460;28;20233;-82
2023/02/16 13:56:37;;;;;;;17.15;14.68;;;;;;;;;;5034973;28;20217;-81
2023/02/16 13:59:58;;;;;;;14.73;13.07;;;;;;;;;;5034670;28;20295;-81
2023/02/16 14:03:01;;;;;;;15.77;13.95;;;;;;;;;;4954377;29;20197;-82
2023/02/16 14:05:38;;;;;;;14.95;11.82;;;;;;;;;;4954843;29;20296;-81
2023/02/16 14:08:22;;;;;;;11.70;10.02;;;;;;;;;;5014841;28;20246;-81
2023/02/16 14:11:11;;;;;;;16.58;14.77;;;;;;;;;;5034759;28;20233;-81
2023/02/16 14:13:51;;;;;;;14.43;12.80;;;;;;;;;;5035689;28;20294;-81
2023/02/16 14:16:33;;;;;;;14.32;12.38;;;;;;;;;;5036242;28;20210;-82
2023/02/16 14:19:05;;;;;;;12.82;11.43;;;;;;;;;;5036271;28;20215;-85
2023/02/16 14:21:39;;;;;;;15.40;11.98;;;;;;;;;;5033617;28;20222;-81
2023/02/16 14:24:27;;;;;;;13.40;11.90;;;;;;;;;;5033881;28;20270;-82
2023/02/16 14:26:58;;;;;;;19.25;14.55;;;;;;;;;;5033755;28;20289;-81
2023/02/16 14:29:30;;;;;;;14.32;12.82;;;;;;;;;;5033721;28;20198;-82
2023/02/16 14:32:03;;;;;;;15.30;12.55;;;;;;;;;;5034204;28;20309;-82
2023/02/16 14:34:36;;;;;;;15.27;12.88;;;;;;;;;;5039536;28;20336;-81
2023/02/16 14:37:31;;;;;;;12.32;9.18;;;;;;;;;;5054648;28;20204;-82
2023/02/16 14:40:15;;;;;;;10.70;9.25;;;;;;;;;;5052965;28;20607;-81
2023/02/16 14:42:54;;;;;;;8.52;7.63;;;;;;;;;;5053586;28;20292;-80
2023/02/16 14:45:53;;;;;;;9.73;8.70;;;;;;;;;;5045156;28;20202;-81
2023/02/16 14:48:38;;;;;;;9.27;8.38;;;;;;;;;;5033172;28;20902;-81
2023/02/16 14:51:39;;;;;;;11.65;9.65;;;;;;;;;;5033792;28;20230;-82
2023/02/16 14:54:39;;;;;;;11.80;10.48;;;;;;;;;;5033699;28;20210;-82
2023/02/16 14:57:10;;;;;;;13.77;11.30;;;;;;;;;;5034259;28;20212;-81
2023/02/16 14:59:44;;;;;;;15.70;12.73;;;;;;;;;;5033839;28;20258;-81
2023/02/16 15:02:34;;;;;;;19.02;14.50;;;;;;;;;;5053236;22;20234;-88
2023/02/16 15:05:18;;;;;;;15.30;13.13;;;;;;;;;;5053347;28;20285;-88
2023/02/16 15:07:49;;;;;;;16.73;14.73;;;;;;;;;;5053444;28;20884;-87
2023/02/16 15:10:27;;;;;;;14.27;10.85;;;;;;;;;;5052275;28;20658;-88
2023/02/16 15:12:56;;;;;;;17.63;14.18;;;;;;;;;;5061913;22;20194;-81
2023/02/16 15:15:30;;;;;;;15.82;14.13;;;;;;;;;;5039136;28;20232;-83
2023/02/16 15:17:59;;;;;;;16.90;14.07;;;;;;;;;;5045561;28;20256;-82
2023/02/16 15:20:30;;;;;;;21.25;14.70;;;;;;;;;;5049481;28;20234;-81
2023/02/16 15:23:01;;;;;;;14.45;11.32;;;;;;;;;;5032812;28;20236;-81
2023/02/16 15:25:32;;;;;;;14.45;11.65;;;;;;;;;;5032488;28;20202;-81
2023/02/16 15:28:04;;;;;;;12.02;9.23;;;;;;;;;;5032244;28;20202;-81
2023/02/16 15:30:33;;;;;;;12.48;11.07;;;;;;;;;;5032108;28;20654;-81
2023/02/16 15:33:05;;;;;;;13.93;10.93;;;;;;;;;;5032199;28;20319;-81
2023/02/16 15:35:36;;;;;;;13.18;10.68;;;;;;;;;;5031226;28;20726;-81
2023/02/16 15:38:20;;;;;;;13.82;12.07;;;;;;;;;;5031179;28;20253;-80
2023/02/16 15:40:47;;;;;;;12.15;10.30;;;;;;;;;;5031770;28;20678;-81